sensor_id;sensor_type;location;lat;lon;timestamp;pressure;altitude;pressure_sealevel;temperature;humidity
37238;BME280;23129;49.662;8.448;2024-03-23T00:56:06;99822.63;;;10.92;100.00
37238;BME280;23129;49.662;8.448;2024-03-23T00:58:34;99826.88;;;10.94;100.00
37238;BME280;23129;49.662;8.448;2024-03-23T01:01:01;99817.25;;;10.95;100.00
37238;BME280;23129;49.662;8.448;2024-03-23T01:03:31;99816.38;;;10.94;100.00
37238;BME280;23129;49.662;8.448;2024-03-23T01:05:59;99812.88;;;10.95;100.00
37238;BME280;23129;49.662;8.448;2024-03-23T01:08:27;99811.13;;;10.94;100.00
37238;BME280;23129;49.662;8.448;2024-03-23T01:10:55;99810.28;;;10.94;100.00
37238;BME280;23129;49.662;8.448;2024-03-23T01:13:23;99811.09;;;10.96;100.00
37238;BME280;23129;49.662;8.448;2024-03-23T01:15:50;99808.34;;;10.99;100.00
37238;BME280;23129;49.662;8.448;2024-03-23T01:18:19;99807.38;;;11.02;100.00
37238;BME280;23129;49.662;8.448;2024-03-23T01:20:48;99803.81;;;11.03;100.00
37238;BME280;23129;49.662;8.448;2024-03-23T01:23:16;99809.06;;;11.03;100.00
37238;BME280;23129;49.662;8.448;2024-03-23T01:25:43;99804.75;;;11.02;100.00
37238;BME280;23129;49.662;8.448;2024-03-23T01:28:10;99803.91;;;11.01;100.00
37238;BME280;23129;49.662;8.448;2024-03-23T01:30:37;99806.56;;;11.00;100.00
37238;BME280;23129;49.662;8.448;2024-03-23T01:33:05;99806.56;;;11.00;100.00
37238;BME280;23129;49.662;8.448;2024-03-23T01:35:32;99807.38;;;11.02;100.00
37238;BME280;23129;49.662;8.448;2024-03-23T01:38:01;99807.38;;;11.02;100.00
37238;BME280;23129;49.662;8.448;2024-03-23T01:40:27;99800.38;;;11.01;100.00
37238;BME280;23129;49.662;8.448;2024-03-23T01:43:01;99806.53;;;11.01;100.00
37238;BME280;23129;49.662;8.448;2024-03-23T01:45:30;99805.63;;;11.01;100.00
37238;BME280;23129;49.662;8.448;2024-03-23T01:47:58;99805.63;;;11.01;100.00
37238;BME280;23129;49.662;8.448;2024-03-23T01:50:25;99797.78;;;11.01;100.00
37238;BME280;23129;49.662;8.448;2024-03-23T01:52:54;99794.28;;;11.00;100.00
37238;BME280;23129;49.662;8.448;2024-03-23T01:55:22;99790.91;;;10.98;100.00
37238;BME280;23129;49.662;8.448;2024-03-23T01:57:50;99788.44;;;10.93;100.00
37238;BME280;23129;49.662;8.448;2024-03-23T02:00:17;99786.88;;;10.89;100.00
37238;BME280;23129;49.662;8.448;2024-03-23T02:02:45;99774.91;;;10.82;100.00
37238;BME280;23129;49.662;8.448;2024-03-23T02:05:12;99776.06;;;10.75;100.00
37238;BME280;23129;49.662;8.448;2024-03-23T02:07:41;99776.31;;;10.69;100.00
37238;BME280;23129;49.662;8.448;2024-03-23T02:10:09;99779.16;;;10.63;100.00
37238;BME280;23129;49.662;8.448;2024-03-23T02:12:40;99780.97;;;10.61;100.00
37238;BME280;23129;49.662;8.448;2024-03-23T02:15:07;99783.72;;;10.58;100.00
37238;BME280;23129;49.662;8.448;2024-03-23T02:17:36;99781.94;;;10.58;100.00
37238;BME280;23129;49.662;8.448;2024-03-23T02:20:03;99775.75;;;10.61;100.00
37238;BME280;23129;49.662;8.448;2024-03-23T02:22:36;99769.56;;;10.62;100.00
37238;BME280;23129;49.662;8.448;2024-03-23T02:25:05;99757.22;;;10.65;100.00
37238;BME280;23129;49.662;8.448;2024-03-23T02:27:34;99753.63;;;10.68;100.00
37238;BME280;23129;49.662;8.448;2024-03-23T02:30:02;99758.78;;;10.69;100.00
37238;BME280;23129;49.662;8.448;2024-03-23T02:32:30;99756.13;;;10.71;100.00
37238;BME280;23129;49.662;8.448;2024-03-23T02:34:57;99754.09;;;10.78;100.00
37238;BME280;23129;49.662;8.448;2024-03-23T02:37:25;99753.06;;;10.82;100.00
37238;BME280;23129;49.662;8.448;2024-03-23T02:39:51;99755.50;;;10.86;100.00
37238;BME280;23129;49.662;8.448;2024-03-23T02:42:20;99757.09;;;10.90;100.00
37238;BME280;23129;49.662;8.448;2024-03-23T02:44:48;99748.16;;;10.94;100.00
37238;BME280;23129;49.662;8.448;2024-03-23T02:47:15;99742.78;;;10.97;100.00
37238;BME280;23129;49.662;8.448;2024-03-23T02:49:43;99750.38;;;11.05;100.00
37238;BME280;23129;49.662;8.448;2024-03-23T02:52:09;99752.72;;;11.11;100.00
37238;BME280;23129;49.662;8.448;2024-03-23T02:54:37;99744.72;;;11.14;100.00
37238;BME280;23129;49.662;8.448;2024-03-23T02:57:04;99751.41;;;11.22;100.00
37238;BME280;23129;49.662;8.448;2024-03-23T02:59:33;99747.78;;;11.26;100.00
37238;BME280;23129;49.662;8.448;2024-03-23T03:02:00;99748.34;;;11.32;100.00
37238;BME280;23129;49.662;8.448;2024-03-23T03:04:31;99747.97;;;11.41;100.00
37238;BME280;23129;49.662;8.448;2024-03-23T03:06:58;99737.88;;;11.53;100.00
37238;BME280;23129;49.662;8.448;2024-03-23T03:09:25;99733.13;;;11.61;100.00
37238;BME280;23129;49.662;8.448;2024-03-23T03:11:52;99727.63;;;11.67;100.00
37238;BME280;23129;49.662;8.448;2024-03-23T03:14:21;99723.91;;;11.71;100.00
37238;BME280;23129;49.662;8.448;2024-03-23T03:16:50;99714.97;;;11.75;100.00
37238;BME280;23129;49.662;8.448;2024-03-23T03:19:18;99721.81;;;11.79;100.00
37238;BME280;23129;49.662;8.448;2024-03-23T03:21:44;99715.63;;;11.80;100.00
37238;BME280;23129;49.662;8.448;2024-03-23T03:24:12;99712.94;;;11.82;100.00
37238;BME280;23129;49.662;8.448;2024-03-23T03:26:39;99716.44;;;11.82;100.00
37238;BME280;23129;49.662;8.448;2024-03-23T03:29:07;99710.31;;;11.82;100.00
37238;BME280;23129;49.662;8.448;2024-03-23T03:31:33;99711.16;;;11.82;100.00
37238;BME280;23129;49.662;8.448;2024-03-23T03:34:02;99727.00;;;11.81;100.00
37238;BME280;23129;49.662;8.448;2024-03-23T03:36:29;99734.16;;;11.77;100.00
37238;BME280;23129;49.662;8.448;2024-03-23T03:38:57;99741.25;;;11.75;100.00
37238;BME280;23129;49.662;8.448;2024-03-23T03:41:23;99734.28;;;11.74;100.00
37238;BME280;23129;49.662;8.448;2024-03-23T03:43:51;99718.41;;;11.77;100.00
37238;BME280;23129;49.662;8.448;2024-03-23T03:46:18;99727.06;;;11.79;100.00
37238;BME280;23129;49.662;8.448;2024-03-23T03:48:46;99725.06;;;11.84;100.00
37238;BME280;23129;49.662;8.448;2024-03-23T03:51:16;99729.31;;;11.88;100.00
37238;BME280;23129;49.662;8.448;2024-03-23T03:53:44;99717.81;;;11.91;100.00
37238;BME280;23129;49.662;8.448;2024-03-23T03:56:10;99719.38;;;11.95;100.00
37238;BME280;23129;49.662;8.448;2024-03-23T03:58:38;99726.34;;;11.96;100.00
37238;BME280;23129;49.662;8.448;2024-03-23T04:01:06;99714.06;;;11.97;100.00
37238;BME280;23129;49.662;8.448;2024-03-23T04:03:34;99714.06;;;11.97;100.00
37238;BME280;23129;49.662;8.448;2024-03-23T04:06:00;99721.88;;;11.98;100.00
37238;BME280;23129;49.662;8.448;2024-03-23T04:08:29;99706.19;;;11.97;100.00
37238;BME280;23129;49.662;8.448;2024-03-23T04:10:56;99698.31;;;11.97;100.00
37238;BME280;23129;49.662;8.448;2024-03-23T04:13:24;99704.47;;;11.96;100.00
37238;BME280;23129;49.662;8.448;2024-03-23T04:15:54;99710.78;;;11.92;100.00
37238;BME280;23129;49.662;8.448;2024-03-23T04:18:22;99706.47;;;11.91;100.00
37238;BME280;23129;49.662;8.448;2024-03-23T04:20:49;99705.66;;;11.88;100.00
37238;BME280;23129;49.662;8.448;2024-03-23T04:23:17;99708.44;;;11.85;100.00
37238;BME280;23129;49.662;8.448;2024-03-23T04:25:45;99717.19;;;11.84;100.00
37238;BME280;23129;49.662;8.448;2024-03-23T04:28:12;99720.09;;;11.78;100.00
37238;BME280;23129;49.662;8.448;2024-03-23T04:30:39;99727.34;;;11.73;100.00
37238;BME280;23129;49.662;8.448;2024-03-23T04:33:06;99714.41;;;11.69;100.00
37238;BME280;23129;49.662;8.448;2024-03-23T04:35:33;99718.94;;;11.65;100.00
37238;BME280;23129;49.662;8.448;2024-03-23T04:38:01;99702.53;;;11.60;100.00
37238;BME280;23129;49.662;8.448;2024-03-23T04:40:28;99710.81;;;11.51;100.00
37238;BME280;23129;49.662;8.448;2024-03-23T04:42:57;99714.91;;;11.37;100.00
37238;BME280;23129;49.662;8.448;2024-03-23T04:45:25;99700.78;;;11.19;100.00
37238;BME280;23129;49.662;8.448;2024-03-23T04:47:52;99703.97;;;11.06;100.00
37238;BME280;23129;49.662;8.448;2024-03-23T04:50:20;99734.91;;;10.97;100.00
37238;BME280;23129;49.662;8.448;2024-03-23T04:52:48;99770.31;;;10.87;100.00
37238;BME280;23129;49.662;8.448;2024-03-23T04:55:15;99784.88;;;10.50;100.00
37238;BME280;23129;49.662;8.448;2024-03-23T04:57:43;99787.31;;;10.08;100.00
37238;BME280;23129;49.662;8.448;2024-03-23T05:00:13;99800.59;;;9.78;100.00
37238;BME280;23129;49.662;8.448;2024-03-23T05:02:44;99786.59;;;9.54;100.00
37238;BME280;23129;49.662;8.448;2024-03-23T05:05:11;99787.16;;;9.37;100.00
37238;BME280;23129;49.662;8.448;2024-03-23T05:07:40;99798.88;;;9.26;100.00
37238;BME280;23129;49.662;8.448;2024-03-23T05:10:10;99834.00;;;9.19;100.00
37238;BME280;23129;49.662;8.448;2024-03-23T05:12:39;99841.16;;;9.12;100.00
37238;BME280;23129;49.662;8.448;2024-03-23T05:15:06;99846.66;;;9.04;100.00
37238;BME280;23129;49.662;8.448;2024-03-23T05:17:36;99860.03;;;8.95;100.00
37238;BME280;23129;49.662;8.448;2024-03-23T05:20:04;99875.94;;;8.87;100.00
37238;BME280;23129;49.662;8.448;2024-03-23T05:22:36;99868.34;;;8.80;100.00
37238;BME280;23129;49.662;8.448;2024-03-23T05:25:03;99871.22;;;8.71;100.00
37238;BME280;23129;49.662;8.448;2024-03-23T05:27:32;99877.53;;;8.63;100.00
37238;BME280;23129;49.662;8.448;2024-03-23T05:29:59;99881.22;;;8.56;100.00
37238;BME280;23129;49.662;8.448;2024-03-23T05:32:27;99877.06;;;8.49;100.00
37238;BME280;23129;49.662;8.448;2024-03-23T05:34:56;99880.66;;;8.45;100.00
37238;BME280;23129;49.662;8.448;2024-03-23T05:37:23;99885.06;;;8.43;100.00
37238;BME280;23129;49.662;8.448;2024-03-23T05:39:51;99888.63;;;8.40;100.00
37238;BME280;23129;49.662;8.448;2024-03-23T05:42:19;99900.00;;;8.38;100.00
37238;BME280;23129;49.662;8.448;2024-03-23T05:44:47;99900.00;;;8.38;100.00
37238;BME280;23129;49.662;8.448;2024-03-23T05:47:15;99902.63;;;8.38;100.00
37238;BME280;23129;49.662;8.448;2024-03-23T05:49:42;99908.72;;;8.37;100.00
37238;BME280;23129;49.662;8.448;2024-03-23T05:52:12;99922.69;;;8.36;100.00
37238;BME280;23129;49.662;8.448;2024-03-23T05:54:38;99927.91;;;8.36;100.00
37238;BME280;23129;49.662;8.448;2024-03-23T05:57:06;99923.59;;;8.35;100.00
37238;BME280;23129;49.662;8.448;2024-03-23T05:59:34;99923.59;;;8.35;100.00
37238;BME280;23129;49.662;8.448;2024-03-23T06:02:01;99913.19;;;8.33;100.00
37238;BME280;23129;49.662;8.448;2024-03-23T06:04:28;99924.47;;;8.34;100.00
37238;BME280;23129;49.662;8.448;2024-03-23T06:06:56;99935.88;;;8.31;100.00
37238;BME280;23129;49.662;8.448;2024-03-23T06:09:25;99942.00;;;8.30;100.00
37238;BME280;23129;49.662;8.448;2024-03-23T06:11:53;99949.84;;;8.30;100.00
37238;BME280;23129;49.662;8.448;2024-03-23T06:14:20;99956.78;;;8.31;100.00
37238;BME280;23129;49.662;8.448;2024-03-23T06:16:47;99968.09;;;8.32;100.00
37238;BME280;23129;49.662;8.448;2024-03-23T06:19:15;99994.19;;;8.33;100.00
37238;BME280;23129;49.662;8.448;2024-03-23T06:21:44;99994.16;;;8.35;100.00
37238;BME280;23129;49.662;8.448;2024-03-23T06:24:11;100002.78;;;8.37;100.00
37238;BME280;23129;49.662;8.448;2024-03-23T06:26:40;100001.03;;;8.37;100.00
37238;BME280;23129;49.662;8.448;2024-03-23T06:29:07;100013.25;;;8.37;100.00
37238;BME280;23129;49.662;8.448;2024-03-23T06:31:35;100018.47;;;8.37;100.00
37238;BME280;23129;49.662;8.448;2024-03-23T06:34:02;100006.31;;;8.36;100.00
37238;BME280;23129;49.662;8.448;2024-03-23T06:36:29;99997.66;;;8.34;100.00
37238;BME280;23129;49.662;8.448;2024-03-23T06:38:57;100022.91;;;8.33;100.00
37238;BME280;23129;49.662;8.448;2024-03-23T06:41:25;100034.31;;;8.31;100.00
37238;BME280;23129;49.662;8.448;2024-03-23T06:43:53;100041.28;;;8.30;100.00
37238;BME280;23129;49.662;8.448;2024-03-23T06:46:21;100043.06;;;8.30;100.00
37238;BME280;23129;49.662;8.448;2024-03-23T06:48:48;100036.13;;;8.29;100.00
37238;BME280;23129;49.662;8.448;2024-03-23T06:51:15;100049.22;;;8.27;100.00
37238;BME280;23129;49.662;8.448;2024-03-23T06:53:42;100061.44;;;8.25;100.00
37238;BME280;23129;49.662;8.448;2024-03-23T06:56:09;100051.06;;;8.22;100.00
37238;BME280;23129;49.662;8.448;2024-03-23T06:58:36;100063.34;;;8.18;100.00
37238;BME280;23129;49.662;8.448;2024-03-23T07:01:05;100066.94;;;8.14;100.00
37238;BME280;23129;49.662;8.448;2024-03-23T07:03:33;100078.25;;;8.13;100.00
37238;BME280;23129;49.662;8.448;2024-03-23T07:06:01;100094.00;;;8.10;100.00
37238;BME280;23129;49.662;8.448;2024-03-23T07:08:28;100105.44;;;8.06;100.00
37238;BME280;23129;49.662;8.448;2024-03-23T07:10:55;100100.28;;;8.03;100.00
37238;BME280;23129;49.662;8.448;2024-03-23T07:13:22;100112.38;;;8.07;100.00
37238;BME280;23129;49.662;8.448;2024-03-23T07:15:52;100117.22;;;8.24;100.00
37238;BME280;23129;49.662;8.448;2024-03-23T07:18:20;100126.31;;;8.45;100.00
37238;BME280;23129;49.662;8.448;2024-03-23T07:20:53;100128.59;;;8.59;100.00
37238;BME280;23129;49.662;8.448;2024-03-23T07:23:20;100139.78;;;8.65;100.00
37238;BME280;23129;49.662;8.448;2024-03-23T07:25:57;100148.47;;;8.64;100.00
37238;BME280;23129;49.662;8.448;2024-03-23T07:28:23;100164.13;;;8.67;100.00
37238;BME280;23129;49.662;8.448;2024-03-23T07:31:02;100183.22;;;8.69;100.00
37238;BME280;23129;49.662;8.448;2024-03-23T07:33:31;100187.69;;;8.66;100.00
37238;BME280;23129;49.662;8.448;2024-03-23T07:35:59;100193.06;;;8.60;100.00
37238;BME280;23129;49.662;8.448;2024-03-23T07:38:27;100202.72;;;8.56;100.00
37238;BME280;23129;49.662;8.448;2024-03-23T07:41:03;100217.56;;;8.56;100.00
37238;BME280;23129;49.662;8.448;2024-03-23T07:43:30;100221.91;;;8.55;100.00
37238;BME280;23129;49.662;8.448;2024-03-23T07:45:58;100219.34;;;8.54;100.00
37238;BME280;23129;49.662;8.448;2024-03-23T07:48:25;100232.44;;;8.52;100.00
37238;BME280;23129;49.662;8.448;2024-03-23T07:51:01;100230.66;;;8.54;100.00
37238;BME280;23129;49.662;8.448;2024-03-23T07:53:28;100222.72;;;8.59;100.00
37238;BME280;23129;49.662;8.448;2024-03-23T07:55:58;100231.22;;;8.67;100.00
37238;BME280;23129;49.662;8.448;2024-03-23T07:58:26;100238.69;;;8.82;100.00
37238;BME280;23129;49.662;8.448;2024-03-23T08:00:54;100244.38;;;9.00;100.00
37238;BME280;23129;49.662;8.448;2024-03-23T08:03:22;100254.69;;;9.06;100.00
37238;BME280;23129;49.662;8.448;2024-03-23T08:05:49;100259.22;;;8.99;100.00
37238;BME280;23129;49.662;8.448;2024-03-23T08:08:18;100259.06;;;9.07;100.00
37238;BME280;23129;49.662;8.448;2024-03-23T08:10:50;100268.66;;;10.04;100.00
37238;BME280;23129;49.662;8.448;2024-03-23T08:13:18;100260.34;;;11.32;100.00
37238;BME280;23129;49.662;8.448;2024-03-23T08:15:45;100260.88;;;12.63;100.00
37238;BME280;23129;49.662;8.448;2024-03-23T08:18:13;100254.41;;;13.56;100.00
37238;BME280;23129;49.662;8.448;2024-03-23T08:20:41;100252.53;;;14.56;100.00
37238;BME280;23129;49.662;8.448;2024-03-23T08:23:08;100241.25;;;15.42;100.00
37238;BME280;23129;49.662;8.448;2024-03-23T08:25:37;100240.56;;;16.07;100.00
37238;BME280;23129;49.662;8.448;2024-03-23T08:28:04;100235.00;;;16.27;100.00
37238;BME280;23129;49.662;8.448;2024-03-23T08:30:35;100243.13;;;16.24;100.00
37238;BME280;23129;49.662;8.448;2024-03-23T08:33:02;100247.59;;;16.39;100.00
37238;BME280;23129;49.662;8.448;2024-03-23T08:35:30;100235.13;;;16.57;99.10
37238;BME280;23129;49.662;8.448;2024-03-23T08:37:56;100245.34;;;16.48;97.13
37238;BME280;23129;49.662;8.448;2024-03-23T08:40:24;100240.75;;;16.67;91.79
37238;BME280;23129;49.662;8.448;2024-03-23T08:42:52;100239.03;;;16.66;83.11
37238;BME280;23129;49.662;8.448;2024-03-23T08:45:20;100244.84;;;16.88;81.47
37238;BME280;23129;49.662;8.448;2024-03-23T08:47:47;100256.13;;;16.44;77.57
37238;BME280;23129;49.662;8.448;2024-03-23T08:50:15;100254.94;;;16.34;79.46
37238;BME280;23129;49.662;8.448;2024-03-23T08:52:41;100260.31;;;16.49;77.60
37238;BME280;23129;49.662;8.448;2024-03-23T08:55:09;100255.81;;;16.82;74.82
37238;BME280;23129;49.662;8.448;2024-03-23T08:57:36;100258.81;;;17.22;70.33
37238;BME280;23129;49.662;8.448;2024-03-23T09:00:06;100263.81;;;17.57;67.80
37238;BME280;23129;49.662;8.448;2024-03-23T09:02:35;100254.72;;;17.61;68.38
37238;BME280;23129;49.662;8.448;2024-03-23T09:05:03;100263.56;;;17.31;67.61
37238;BME280;23129;49.662;8.448;2024-03-23T09:07:31;100265.19;;;16.72;68.48
37238;BME280;23129;49.662;8.448;2024-03-23T09:09:59;100283.06;;;16.04;69.61
37238;BME280;23129;49.662;8.448;2024-03-23T09:12:25;100273.69;;;16.14;68.63
37238;BME280;23129;49.662;8.448;2024-03-23T09:14:53;100263.13;;;15.96;67.91
37238;BME280;23129;49.662;8.448;2024-03-23T09:17:21;100272.81;;;15.63;68.19
37238;BME280;23129;49.662;8.448;2024-03-23T09:19:49;100274.22;;;15.35;69.51
37238;BME280;23129;49.662;8.448;2024-03-23T09:22:17;100279.06;;;14.91;70.13
37238;BME280;23129;49.662;8.448;2024-03-23T09:24:44;100280.69;;;14.57;71.39
37238;BME280;23129;49.662;8.448;2024-03-23T09:27:11;100277.06;;;14.39;72.75
37238;BME280;23129;49.662;8.448;2024-03-23T09:29:38;100268.66;;;14.31;68.64
37238;BME280;23129;49.662;8.448;2024-03-23T09:32:06;100275.91;;;14.26;67.73
37238;BME280;23129;49.662;8.448;2024-03-23T09:34:34;100275.06;;;14.25;66.37
37238;BME280;23129;49.662;8.448;2024-03-23T09:37:02;100279.03;;;14.54;66.36
37238;BME280;23129;49.662;8.448;2024-03-23T09:39:29;100273.56;;;15.13;64.73
37238;BME280;23129;49.662;8.448;2024-03-23T09:41:58;100272.19;;;15.23;63.15
37238;BME280;23129;49.662;8.448;2024-03-23T09:44:26;100269.34;;;14.91;62.70
37238;BME280;23129;49.662;8.448;2024-03-23T09:46:55;100284.38;;;14.72;64.07
37238;BME280;23129;49.662;8.448;2024-03-23T09:49:22;100281.22;;;14.64;63.78
37238;BME280;23129;49.662;8.448;2024-03-23T09:51:51;100268.66;;;14.69;63.35
37238;BME280;23129;49.662;8.448;2024-03-23T09:54:18;100270.59;;;15.01;61.75
37238;BME280;23129;49.662;8.448;2024-03-23T09:56:46;100268.63;;;15.41;59.78
37238;BME280;23129;49.662;8.448;2024-03-23T09:59:13;100261.69;;;15.39;58.02
37238;BME280;23129;49.662;8.448;2024-03-23T10:01:41;100264.88;;;15.11;57.28
37238;BME280;23129;49.662;8.448;2024-03-23T10:04:08;100263.84;;;15.13;57.19
37238;BME280;23129;49.662;8.448;2024-03-23T10:06:36;100257.88;;;15.10;57.09
37238;BME280;23129;49.662;8.448;2024-03-23T10:09:17;100263.81;;;14.78;57.54
37238;BME280;23129;49.662;8.448;2024-03-23T10:11:46;100282.06;;;14.45;57.75
37238;BME280;23129;49.662;8.448;2024-03-23T10:14:29;100275.31;;;14.00;57.23
37238;BME280;23129;49.662;8.448;2024-03-23T10:17:12;100273.25;;;13.67;58.25
37238;BME280;23129;49.662;8.448;2024-03-23T10:19:40;100263.75;;;13.43;58.79
37238;BME280;23129;49.662;8.448;2024-03-23T10:22:09;100271.53;;;13.26;58.69
37238;BME280;23129;49.662;8.448;2024-03-23T10:24:38;100271.13;;;13.13;58.52
37238;BME280;23129;49.662;8.448;2024-03-23T10:27:06;100277.88;;;13.20;57.99
37238;BME280;23129;49.662;8.448;2024-03-23T10:29:32;100278.00;;;13.17;57.47
37238;BME280;23129;49.662;8.448;2024-03-23T10:32:10;100279.34;;;13.05;56.98
37238;BME280;23129;49.662;8.448;2024-03-23T10:34:38;100268.50;;;12.91;57.44
37238;BME280;23129;49.662;8.448;2024-03-23T10:37:07;100285.72;;;12.77;58.19
37238;BME280;23129;49.662;8.448;2024-03-23T10:39:35;100282.53;;;12.69;57.49
37238;BME280;23129;49.662;8.448;2024-03-23T10:42:06;100287.31;;;12.60;56.89
37238;BME280;23129;49.662;8.448;2024-03-23T10:44:34;100285.03;;;12.50;55.93
37238;BME280;23129;49.662;8.448;2024-03-23T10:47:03;100272.84;;;12.48;56.11
37238;BME280;23129;49.662;8.448;2024-03-23T10:49:31;100275.53;;;12.46;55.43
37238;BME280;23129;49.662;8.448;2024-03-23T10:52:01;100278.47;;;12.39;54.58
37238;BME280;23129;49.662;8.448;2024-03-23T10:54:28;100281.25;;;12.34;54.73
37238;BME280;23129;49.662;8.448;2024-03-23T10:56:59;100275.03;;;12.37;54.10
37238;BME280;23129;49.662;8.448;2024-03-23T10:59:30;100281.09;;;12.39;54.04
37238;BME280;23129;49.662;8.448;2024-03-23T11:01:59;100304.75;;;12.39;53.74
37238;BME280;23129;49.662;8.448;2024-03-23T11:04:30;100315.84;;;12.00;55.37
37238;BME280;23129;49.662;8.448;2024-03-23T11:06:59;100332.72;;;11.39;58.23
37238;BME280;23129;49.662;8.448;2024-03-23T11:09:41;100356.16;;;10.63;62.34
37238;BME280;23129;49.662;8.448;2024-03-23T11:12:28;100342.75;;;10.10;67.42
37238;BME280;23129;49.662;8.448;2024-03-23T11:15:01;100326.88;;;9.83;72.00
37238;BME280;23129;49.662;8.448;2024-03-23T11:17:29;100336.84;;;9.69;75.25
37238;BME280;23129;49.662;8.448;2024-03-23T11:19:58;100327.38;;;9.65;78.27
37238;BME280;23129;49.662;8.448;2024-03-23T11:22:42;100312.41;;;10.02;79.25
37238;BME280;23129;49.662;8.448;2024-03-23T11:25:28;100315.38;;;10.20;79.12
37238;BME280;23129;49.662;8.448;2024-03-23T11:27:56;100318.03;;;10.79;76.66
37238;BME280;23129;49.662;8.448;2024-03-23T11:30:25;100324.84;;;10.86;75.60
37238;BME280;23129;49.662;8.448;2024-03-23T11:32:55;100319.72;;;10.82;76.10
37238;BME280;23129;49.662;8.448;2024-03-23T11:35:26;100311.66;;;10.88;75.91
37238;BME280;23129;49.662;8.448;2024-03-23T11:38:08;100306.28;;;10.92;75.43
37238;BME280;23129;49.662;8.448;2024-03-23T11:40:36;100304.97;;;11.32;74.10
37238;BME280;23129;49.662;8.448;2024-03-23T11:43:05;100297.75;;;11.39;72.97
37238;BME280;23129;49.662;8.448;2024-03-23T11:45:37;100296.38;;;11.27;73.54
37238;BME280;23129;49.662;8.448;2024-03-23T11:48:06;100295.09;;;11.14;74.08
37238;BME280;23129;49.662;8.448;2024-03-23T11:50:36;100290.22;;;11.02;74.73
37238;BME280;23129;49.662;8.448;2024-03-23T11:53:22;100281.81;;;10.92;75.18
37238;BME280;23129;49.662;8.448;2024-03-23T11:55:50;100286.59;;;11.06;75.08
37238;BME280;23129;49.662;8.448;2024-03-23T11:58:19;100283.66;;;11.41;73.71
37238;BME280;23129;49.662;8.448;2024-03-23T12:00:52;100278.66;;;11.85;71.73
37238;BME280;23129;49.662;8.448;2024-03-23T12:03:20;100266.00;;;12.88;68.54
37238;BME280;23129;49.662;8.448;2024-03-23T12:05:49;100263.63;;;13.66;65.31
37238;BME280;23129;49.662;8.448;2024-03-23T12:08:21;100268.16;;;13.83;64.57
37238;BME280;23129;49.662;8.448;2024-03-23T12:10:50;100272.31;;;13.68;65.53
37238;BME280;23129;49.662;8.448;2024-03-23T12:13:19;100262.63;;;13.48;66.11
37238;BME280;23129;49.662;8.448;2024-03-23T12:15:47;100261.97;;;13.21;66.08
37238;BME280;23129;49.662;8.448;2024-03-23T12:18:17;100257.31;;;12.86;67.96
37238;BME280;23129;49.662;8.448;2024-03-23T12:20:44;100254.34;;;12.49;69.08
37238;BME280;23129;49.662;8.448;2024-03-23T12:23:12;100254.00;;;12.13;70.23
37238;BME280;23129;49.662;8.448;2024-03-23T12:25:42;100257.13;;;11.74;71.43
37238;BME280;23129;49.662;8.448;2024-03-23T12:28:10;100269.72;;;11.39;72.64
37238;BME280;23129;49.662;8.448;2024-03-23T12:30:38;100249.00;;;11.05;74.44
37238;BME280;23129;49.662;8.448;2024-03-23T12:33:06;100259.44;;;10.80;77.35
37238;BME280;23129;49.662;8.448;2024-03-23T12:35:34;100280.28;;;10.57;78.70
37238;BME280;23129;49.662;8.448;2024-03-23T12:38:02;100260.47;;;10.46;81.67
37238;BME280;23129;49.662;8.448;2024-03-23T12:40:29;100287.06;;;10.34;82.69
37238;BME280;23129;49.662;8.448;2024-03-23T12:42:57;100280.28;;;10.27;80.20
37238;BME280;23129;49.662;8.448;2024-03-23T12:45:23;100277.16;;;10.13;79.85
37238;BME280;23129;49.662;8.448;2024-03-23T12:47:51;100224.84;;;10.10;79.27
37238;BME280;23129;49.662;8.448;2024-03-23T12:50:20;100261.66;;;10.05;78.04
37238;BME280;23129;49.662;8.448;2024-03-23T12:52:49;100259.16;;;10.00;77.38
37238;BME280;23129;49.662;8.448;2024-03-23T12:55:16;100290.03;;;9.91;77.44
37238;BME280;23129;49.662;8.448;2024-03-23T12:57:44;100279.88;;;9.78;78.81
37238;BME280;23129;49.662;8.448;2024-03-23T13:00:13;100269.34;;;9.80;79.86
37238;BME280;23129;49.662;8.448;2024-03-23T13:02:42;100261.38;;;9.85;79.92
37238;BME280;23129;49.662;8.448;2024-03-23T13:05:09;100280.41;;;9.90;78.66
37238;BME280;23129;49.662;8.448;2024-03-23T13:07:37;100280.88;;;10.05;78.36
37238;BME280;23129;49.662;8.448;2024-03-23T13:10:07;100262.34;;;10.97;76.33
37238;BME280;23129;49.662;8.448;2024-03-23T13:12:35;100269.94;;;11.83;71.78
37238;BME280;23129;49.662;8.448;2024-03-23T13:15:02;100246.91;;;12.83;67.57
37238;BME280;23129;49.662;8.448;2024-03-23T13:17:29;100243.06;;;13.75;63.64
37238;BME280;23129;49.662;8.448;2024-03-23T13:19:56;100249.81;;;14.01;60.42
37238;BME280;23129;49.662;8.448;2024-03-23T13:22:24;100242.41;;;14.47;59.53
37238;BME280;23129;49.662;8.448;2024-03-23T13:24:51;100238.41;;;14.38;58.62
37238;BME280;23129;49.662;8.448;2024-03-23T13:27:20;100240.19;;;14.19;58.97
37238;BME280;23129;49.662;8.448;2024-03-23T13:29:47;100236.09;;;13.74;60.22
37238;BME280;23129;49.662;8.448;2024-03-23T13:32:15;100240.84;;;13.45;61.84
37238;BME280;23129;49.662;8.448;2024-03-23T13:34:41;100243.06;;;13.75;61.83
37238;BME280;23129;49.662;8.448;2024-03-23T13:37:09;100240.34;;;14.34;60.65
37238;BME280;23129;49.662;8.448;2024-03-23T13:39:36;100242.03;;;15.27;56.23
37238;BME280;23129;49.662;8.448;2024-03-23T13:42:04;100223.53;;;15.62;54.24
37238;BME280;23129;49.662;8.448;2024-03-23T13:44:33;100219.91;;;16.13;52.11
37238;BME280;23129;49.662;8.448;2024-03-23T13:47:02;100230.84;;;16.55;50.88
37238;BME280;23129;49.662;8.448;2024-03-23T13:49:31;100225.56;;;16.55;50.28
37238;BME280;23129;49.662;8.448;2024-03-23T13:52:00;100219.75;;;16.32;50.25